sensor_id;sensor_type;location;lat;lon;timestamp;temperature;humidity
48589;DHT22;34369;51.174;6.738;2023-02-01T00:01:41;5.70;70.90
48589;DHT22;34369;51.174;6.738;2023-02-01T00:04:13;5.70;71.00
48589;DHT22;34369;51.174;6.738;2023-02-01T00:06:45;5.70;71.10
48589;DHT22;34369;51.174;6.738;2023-02-01T00:09:17;5.70;71.10
48589;DHT22;34369;51.174;6.738;2023-02-01T00:11:50;5.70;71.10
48589;DHT22;34369;51.174;6.738;2023-02-01T00:14:23;5.70;71.20
48589;DHT22;34369;51.174;6.738;2023-02-01T00:16:54;5.80;71.20
48589;DHT22;34369;51.174;6.738;2023-02-01T00:19:26;5.80;71.20
48589;DHT22;34369;51.174;6.738;2023-02-01T00:21:58;5.80;71.20
48589;DHT22;34369;51.174;6.738;2023-02-01T00:24:30;5.80;71.20
48589;DHT22;34369;51.174;6.738;2023-02-01T00:27:03;5.80;71.20
48589;DHT22;34369;51.174;6.738;2023-02-01T00:29:35;5.80;71.10
48589;DHT22;34369;51.174;6.738;2023-02-01T00:32:07;5.80;71.10
48589;DHT22;34369;51.174;6.738;2023-02-01T00:34:39;5.80;71.00
48589;DHT22;34369;51.174;6.738;2023-02-01T00:37:11;5.80;70.90
48589;DHT22;34369;51.174;6.738;2023-02-01T00:39:43;5.80;70.80
48589;DHT22;34369;51.174;6.738;2023-02-01T00:42:16;5.90;70.70
48589;DHT22;34369;51.174;6.738;2023-02-01T00:44:48;5.80;70.60
48589;DHT22;34369;51.174;6.738;2023-02-01T00:47:20;5.90;70.50
48589;DHT22;34369;51.174;6.738;2023-02-01T00:49:52;5.90;70.30
48589;DHT22;34369;51.174;6.738;2023-02-01T00:52:24;5.90;70.10
48589;DHT22;34369;51.174;6.738;2023-02-01T00:54:56;5.90;69.90
48589;DHT22;34369;51.174;6.738;2023-02-01T00:57:29;5.80;69.60
48589;DHT22;34369;51.174;6.738;2023-02-01T01:00:02;5.80;69.40
48589;DHT22;34369;51.174;6.738;2023-02-01T01:02:35;5.80;69.10
48589;DHT22;34369;51.174;6.738;2023-02-01T01:05:07;5.80;68.90
48589;DHT22;34369;51.174;6.738;2023-02-01T01:07:39;5.70;68.60
48589;DHT22;34369;51.174;6.738;2023-02-01T01:10:11;5.70;68.50
48589;DHT22;34369;51.174;6.738;2023-02-01T01:12:45;5.70;68.40
48589;DHT22;34369;51.174;6.738;2023-02-01T01:15:16;5.70;68.40
48589;DHT22;34369;51.174;6.738;2023-02-01T01:17:48;5.60;68.20
48589;DHT22;34369;51.174;6.738;2023-02-01T01:20:20;5.60;68.10
48589;DHT22;34369;51.174;6.738;2023-02-01T01:22:52;5.60;67.70
48589;DHT22;34369;51.174;6.738;2023-02-01T01:25:24;5.60;67.60
48589;DHT22;34369;51.174;6.738;2023-02-01T01:27:58;5.60;67.40
48589;DHT22;34369;51.174;6.738;2023-02-01T01:30:30;5.60;67.10
48589;DHT22;34369;51.174;6.738;2023-02-01T01:33:02;5.60;66.90
48589;DHT22;34369;51.174;6.738;2023-02-01T01:35:34;5.60;66.80
48589;DHT22;34369;51.174;6.738;2023-02-01T01:38:06;5.50;66.70
48589;DHT22;34369;51.174;6.738;2023-02-01T01:40:39;5.50;66.50
48589;DHT22;34369;51.174;6.738;2023-02-01T01:43:19;5.50;66.40
48589;DHT22;34369;51.174;6.738;2023-02-01T01:45:52;5.50;66.20
48589;DHT22;34369;51.174;6.738;2023-02-01T01:48:25;5.50;66.10
48589;DHT22;34369;51.174;6.738;2023-02-01T01:51:01;5.50;66.10
48589;DHT22;34369;51.174;6.738;2023-02-01T01:53:40;5.50;66.00
48589;DHT22;34369;51.174;6.738;2023-02-01T01:56:15;5.40;66.00
48589;DHT22;34369;51.174;6.738;2023-02-01T01:58:49;5.30;65.90
48589;DHT22;34369;51.174;6.738;2023-02-01T02:01:21;5.30;65.90
48589;DHT22;34369;51.174;6.738;2023-02-01T02:03:53;5.30;65.90
48589;DHT22;34369;51.174;6.738;2023-02-01T02:06:33;5.30;65.80
48589;DHT22;34369;51.174;6.738;2023-02-01T02:09:10;5.30;65.70
48589;DHT22;34369;51.174;6.738;2023-02-01T02:11:42;5.20;65.70
48589;DHT22;34369;51.174;6.738;2023-02-01T02:14:17;5.10;65.70
48589;DHT22;34369;51.174;6.738;2023-02-01T02:16:58;5.10;65.60
48589;DHT22;34369;51.174;6.738;2023-02-01T02:20:22;5.10;65.50
48589;DHT22;34369;51.174;6.738;2023-02-01T02:23:44;5.10;65.20
48589;DHT22;34369;51.174;6.738;2023-02-01T02:27:03;5.00;65.10
48589;DHT22;34369;51.174;6.738;2023-02-01T02:30:23;5.00;65.40
48589;DHT22;34369;51.174;6.738;2023-02-01T02:33:30;5.00;65.50
48589;DHT22;34369;51.174;6.738;2023-02-01T02:36:15;5.00;65.40
48589;DHT22;34369;51.174;6.738;2023-02-01T02:38:55;4.90;65.60
48589;DHT22;34369;51.174;6.738;2023-02-01T02:41:35;4.90;65.60
48589;DHT22;34369;51.174;6.738;2023-02-01T02:44:37;4.90;65.60
48589;DHT22;34369;51.174;6.738;2023-02-01T02:47:46;4.90;65.60
48589;DHT22;34369;51.174;6.738;2023-02-01T02:50:27;4.90;65.60
48589;DHT22;34369;51.174;6.738;2023-02-01T02:53:21;4.90;65.50
48589;DHT22;34369;51.174;6.738;2023-02-01T02:56:15;4.80;65.60
48589;DHT22;34369;51.174;6.738;2023-02-01T02:59:07;4.80;65.50
48589;DHT22;34369;51.174;6.738;2023-02-01T03:01:58;4.70;65.60
48589;DHT22;34369;51.174;6.738;2023-02-01T03:04:52;4.70;65.60
48589;DHT22;34369;51.174;6.738;2023-02-01T03:07:52;4.70;65.70
48589;DHT22;34369;51.174;6.738;2023-02-01T03:10:33;4.70;65.70
48589;DHT22;34369;51.174;6.738;2023-02-01T03:13:12;4.70;65.80
48589;DHT22;34369;51.174;6.738;2023-02-01T03:15:57;4.60;65.90
48589;DHT22;34369;51.174;6.738;2023-02-01T03:18:35;4.60;66.10
48589;DHT22;34369;51.174;6.738;2023-02-01T03:21:13;4.60;66.10
48589;DHT22;34369;51.174;6.738;2023-02-01T03:23:50;4.50;66.20
48589;DHT22;34369;51.174;6.738;2023-02-01T03:26:24;4.50;66.40
48589;DHT22;34369;51.174;6.738;2023-02-01T03:29:07;4.50;66.50
48589;DHT22;34369;51.174;6.738;2023-02-01T03:31:42;4.50;66.60
48589;DHT22;34369;51.174;6.738;2023-02-01T03:34:14;4.50;66.60
48589;DHT22;34369;51.174;6.738;2023-02-01T03:36:49;4.60;66.70
48589;DHT22;34369;51.174;6.738;2023-02-01T03:39:27;4.60;66.80
48589;DHT22;34369;51.174;6.738;2023-02-01T03:42:05;4.60;66.80
48589;DHT22;34369;51.174;6.738;2023-02-01T03:44:41;4.70;66.80
48589;DHT22;34369;51.174;6.738;2023-02-01T03:47:20;4.70;66.90
48589;DHT22;34369;51.174;6.738;2023-02-01T03:49:56;4.70;66.80
48589;DHT22;34369;51.174;6.738;2023-02-01T03:52:34;4.70;66.70
48589;DHT22;34369;51.174;6.738;2023-02-01T03:55:13;4.80;66.50
48589;DHT22;34369;51.174;6.738;2023-02-01T03:57:52;4.90;66.40
48589;DHT22;34369;51.174;6.738;2023-02-01T04:00:26;4.90;66.30
48589;DHT22;34369;51.174;6.738;2023-02-01T04:02:58;4.90;66.30
48589;DHT22;34369;51.174;6.738;2023-02-01T04:05:30;5.00;66.10
48589;DHT22;34369;51.174;6.738;2023-02-01T04:08:03;5.00;66.10
48589;DHT22;34369;51.174;6.738;2023-02-01T04:10:37;5.00;66.00
48589;DHT22;34369;51.174;6.738;2023-02-01T04:13:09;5.10;65.90
48589;DHT22;34369;51.174;6.738;2023-02-01T04:15:42;5.10;65.80
48589;DHT22;34369;51.174;6.738;2023-02-01T04:18:14;5.10;65.80
48589;DHT22;34369;51.174;6.738;2023-02-01T04:20:45;5.20;65.60
48589;DHT22;34369;51.174;6.738;2023-02-01T04:23:17;5.20;65.50
48589;DHT22;34369;51.174;6.738;2023-02-01T04:25:50;5.30;65.50
48589;DHT22;34369;51.174;6.738;2023-02-01T04:28:22;5.30;65.40
48589;DHT22;34369;51.174;6.738;2023-02-01T04:30:54;5.30;65.20
48589;DHT22;34369;51.174;6.738;2023-02-01T04:33:26;5.30;65.20
48589;DHT22;34369;51.174;6.738;2023-02-01T04:35:59;5.30;65.10
48589;DHT22;34369;51.174;6.738;2023-02-01T04:38:31;5.30;65.00
48589;DHT22;34369;51.174;6.738;2023-02-01T04:41:05;5.30;64.90
48589;DHT22;34369;51.174;6.738;2023-02-01T04:43:38;5.30;64.90
48589;DHT22;34369;51.174;6.738;2023-02-01T04:46:10;5.20;64.90
48589;DHT22;34369;51.174;6.738;2023-02-01T04:48:42;5.10;64.90
48589;DHT22;34369;51.174;6.738;2023-02-01T04:51:14;5.10;64.80
48589;DHT22;34369;51.174;6.738;2023-02-01T04:53:46;5.10;64.90
48589;DHT22;34369;51.174;6.738;2023-02-01T04:56:40;5.10;64.90
48589;DHT22;34369;51.174;6.738;2023-02-01T04:59:34;5.00;64.80
48589;DHT22;34369;51.174;6.738;2023-02-01T05:02:08;5.00;64.90
48589;DHT22;34369;51.174;6.738;2023-02-01T05:04:41;5.00;65.00
48589;DHT22;34369;51.174;6.738;2023-02-01T05:07:14;5.00;65.00
48589;DHT22;34369;51.174;6.738;2023-02-01T05:09:46;5.00;65.00
48589;DHT22;34369;51.174;6.738;2023-02-01T05:12:20;5.00;65.00
48589;DHT22;34369;51.174;6.738;2023-02-01T05:15:09;4.90;65.00
48589;DHT22;34369;51.174;6.738;2023-02-01T05:17:43;4.90;65.00
48589;DHT22;34369;51.174;6.738;2023-02-01T05:20:16;4.90;65.00
48589;DHT22;34369;51.174;6.738;2023-02-01T05:22:49;4.80;65.00
48589;DHT22;34369;51.174;6.738;2023-02-01T05:25:21;4.80;65.00
48589;DHT22;34369;51.174;6.738;2023-02-01T05:27:55;4.80;65.00
48589;DHT22;34369;51.174;6.738;2023-02-01T05:30:27;4.70;65.10
48589;DHT22;34369;51.174;6.738;2023-02-01T05:32:59;4.70;65.10
48589;DHT22;34369;51.174;6.738;2023-02-01T05:35:32;4.70;65.10
48589;DHT22;34369;51.174;6.738;2023-02-01T05:38:04;4.70;65.10
48589;DHT22;34369;51.174;6.738;2023-02-01T05:40:38;4.70;65.20
48589;DHT22;34369;51.174;6.738;2023-02-01T05:43:12;4.70;65.20
48589;DHT22;34369;51.174;6.738;2023-02-01T05:45:44;4.70;65.20
48589;DHT22;34369;51.174;6.738;2023-02-01T05:48:16;4.70;65.30
48589;DHT22;34369;51.174;6.738;2023-02-01T05:50:49;4.70;65.30
48589;DHT22;34369;51.174;6.738;2023-02-01T05:53:21;4.70;65.40
48589;DHT22;34369;51.174;6.738;2023-02-01T05:55:54;4.70;65.30
48589;DHT22;34369;51.174;6.738;2023-02-01T05:58:28;4.70;65.30
48589;DHT22;34369;51.174;6.738;2023-02-01T06:01:05;4.70;65.20
48589;DHT22;34369;51.174;6.738;2023-02-01T06:03:43;4.70;65.20
48589;DHT22;34369;51.174;6.738;2023-02-01T06:06:21;4.70;65.30
48589;DHT22;34369;51.174;6.738;2023-02-01T06:08:53;4.60;65.20
48589;DHT22;34369;51.174;6.738;2023-02-01T06:11:27;4.60;65.30
48589;DHT22;34369;51.174;6.738;2023-02-01T06:14:01;4.60;65.30
48589;DHT22;34369;51.174;6.738;2023-02-01T06:16:42;4.60;65.30
48589;DHT22;34369;51.174;6.738;2023-02-01T06:19:16;4.50;65.30
48589;DHT22;34369;51.174;6.738;2023-02-01T06:21:58;4.50;65.30
48589;DHT22;34369;51.174;6.738;2023-02-01T06:24:32;4.50;65.50
48589;DHT22;34369;51.174;6.738;2023-02-01T06:27:04;4.50;65.50
48589;DHT22;34369;51.174;6.738;2023-02-01T06:29:41;4.50;65.60
48589;DHT22;34369;51.174;6.738;2023-02-01T06:32:14;4.50;65.70
48589;DHT22;34369;51.174;6.738;2023-02-01T06:34:48;4.60;65.80
48589;DHT22;34369;51.174;6.738;2023-02-01T06:37:24;4.60;65.80
48589;DHT22;34369;51.174;6.738;2023-02-01T06:39:56;4.70;65.80
48589;DHT22;34369;51.174;6.738;2023-02-01T06:42:34;4.70;65.70
48589;DHT22;34369;51.174;6.738;2023-02-01T06:45:18;4.70;65.80
48589;DHT22;34369;51.174;6.738;2023-02-01T06:47:58;4.70;65.80
48589;DHT22;34369;51.174;6.738;2023-02-01T06:50:59;4.70;65.70
48589;DHT22;34369;51.174;6.738;2023-02-01T06:53:47;4.70;65.60
48589;DHT22;34369;51.174;6.738;2023-02-01T06:56:29;4.90;65.50
48589;DHT22;34369;51.174;6.738;2023-02-01T06:59:11;4.90;65.50
48589;DHT22;34369;51.174;6.738;2023-02-01T07:01:52;4.90;65.50
48589;DHT22;34369;51.174;6.738;2023-02-01T07:04:48;4.90;65.50
48589;DHT22;34369;51.174;6.738;2023-02-01T07:07:48;5.00;65.40
48589;DHT22;34369;51.174;6.738;2023-02-01T07:10:21;5.00;65.40
48589;DHT22;34369;51.174;6.738;2023-02-01T07:12:57;5.00;65.50
48589;DHT22;34369;51.174;6.738;2023-02-01T07:15:41;5.00;65.40
48589;DHT22;34369;51.174;6.738;2023-02-01T07:18:19;5.00;65.50
48589;DHT22;34369;51.174;6.738;2023-02-01T07:20:54;5.00;65.50
48589;DHT22;34369;51.174;6.738;2023-02-01T07:23:30;5.00;65.50
48589;DHT22;34369;51.174;6.738;2023-02-01T07:26:13;5.00;65.40
48589;DHT22;34369;51.174;6.738;2023-02-01T07:28:47;5.10;65.40
48589;DHT22;34369;51.174;6.738;2023-02-01T07:31:21;5.10;65.30
48589;DHT22;34369;51.174;6.738;2023-02-01T07:33:57;5.10;65.40
48589;DHT22;34369;51.174;6.738;2023-02-01T07:36:32;5.10;65.40
48589;DHT22;34369;51.174;6.738;2023-02-01T07:39:07;5.20;65.40
48589;DHT22;34369;51.174;6.738;2023-02-01T07:41:40;5.10;65.30
48589;DHT22;34369;51.174;6.738;2023-02-01T07:44:15;5.30;65.20
48589;DHT22;34369;51.174;6.738;2023-02-01T07:46:54;5.20;65.20
48589;DHT22;34369;51.174;6.738;2023-02-01T07:49:30;5.30;65.00
48589;DHT22;34369;51.174;6.738;2023-02-01T07:52:05;5.30;65.00
48589;DHT22;34369;51.174;6.738;2023-02-01T07:54:39;5.30;65.00
48589;DHT22;34369;51.174;6.738;2023-02-01T07:57:12;5.30;65.10
48589;DHT22;34369;51.174;6.738;2023-02-01T07:59:45;5.30;65.10
48589;DHT22;34369;51.174;6.738;2023-02-01T08:02:32;5.30;65.00
48589;DHT22;34369;51.174;6.738;2023-02-01T08:05:09;5.30;65.00
48589;DHT22;34369;51.174;6.738;2023-02-01T08:07:42;5.30;65.00
48589;DHT22;34369;51.174;6.738;2023-02-01T08:10:15;5.40;64.90
48589;DHT22;34369;51.174;6.738;2023-02-01T08:12:49;5.40;64.80
48589;DHT22;34369;51.174;6.738;2023-02-01T08:15:23;5.40;64.70
48589;DHT22;34369;51.174;6.738;2023-02-01T08:17:56;5.30;64.70
48589;DHT22;34369;51.174;6.738;2023-02-01T08:20:35;5.40;64.80
48589;DHT22;34369;51.174;6.738;2023-02-01T08:23:13;5.50;64.60
48589;DHT22;34369;51.174;6.738;2023-02-01T08:25:51;5.40;64.70
48589;DHT22;34369;51.174;6.738;2023-02-01T08:28:24;5.50;64.70
48589;DHT22;34369;51.174;6.738;2023-02-01T08:30:58;5.50;64.70
48589;DHT22;34369;51.174;6.738;2023-02-01T08:33:30;5.50;64.70
48589;DHT22;34369;51.174;6.738;2023-02-01T08:36:06;5.50;64.70
48589;DHT22;34369;51.174;6.738;2023-02-01T08:38:41;5.50;64.80
48589;DHT22;34369;51.174;6.738;2023-02-01T08:41:15;5.50;64.80
48589;DHT22;34369;51.174;6.738;2023-02-01T08:43:50;5.50;64.80
48589;DHT22;34369;51.174;6.738;2023-02-01T08:46:23;5.50;64.80
48589;DHT22;34369;51.174;6.738;2023-02-01T08:48:56;5.50;64.70
48589;DHT22;34369;51.174;6.738;2023-02-01T08:51:30;5.50;64.70
48589;DHT22;34369;51.174;6.738;2023-02-01T08:54:05;5.60;64.60
48589;DHT22;34369;51.174;6.738;2023-02-01T08:56:40;5.60;64.70
48589;DHT22;34369;51.174;6.738;2023-02-01T08:59:16;5.60;64.70
48589;DHT22;34369;51.174;6.738;2023-02-01T09:01:49;5.60;64.70
48589;DHT22;34369;51.174;6.738;2023-02-01T09:04:21;5.70;64.70
48589;DHT22;34369;51.174;6.738;2023-02-01T09:06:57;5.70;64.70
48589;DHT22;34369;51.174;6.738;2023-02-01T09:09:29;5.70;64.50
48589;DHT22;34369;51.174;6.738;2023-02-01T09:12:05;5.80;64.50
48589;DHT22;34369;51.174;6.738;2023-02-01T09:14:38;5.80;64.30
48589;DHT22;34369;51.174;6.738;2023-02-01T09:17:11;5.80;64.20
48589;DHT22;34369;51.174;6.738;2023-02-01T09:19:45;5.80;64.10
48589;DHT22;34369;51.174;6.738;2023-02-01T09:22:20;5.80;63.90
48589;DHT22;34369;51.174;6.738;2023-02-01T09:24:53;5.90;63.80
48589;DHT22;34369;51.174;6.738;2023-02-01T09:27:26;5.80;63.80
48589;DHT22;34369;51.174;6.738;2023-02-01T09:30:08;5.80;63.70
48589;DHT22;34369;51.174;6.738;2023-02-01T09:32:43;5.90;63.80
48589;DHT22;34369;51.174;6.738;2023-02-01T09:35:18;5.90;63.40
48589;DHT22;34369;51.174;6.738;2023-02-01T09:37:54;5.80;63.70
48589;DHT22;34369;51.174;6.738;2023-02-01T09:40:27;5.90;63.80
48589;DHT22;34369;51.174;6.738;2023-02-01T09:43:15;5.90;63.90
48589;DHT22;34369;51.174;6.738;2023-02-01T09:45:59;5.90;63.70
48589;DHT22;34369;51.174;6.738;2023-02-01T09:48:39;5.90;63.80
48589;DHT22;34369;51.174;6.738;2023-02-01T09:51:16;5.90;63.80
48589;DHT22;34369;51.174;6.738;2023-02-01T09:54:02;5.90;63.70
48589;DHT22;34369;51.174;6.738;2023-02-01T09:56:41;5.90;63.70
48589;DHT22;34369;51.174;6.738;2023-02-01T09:59:30;5.90;63.60
48589;DHT22;34369;51.174;6.738;2023-02-01T10:02:13;5.90;63.70
48589;DHT22;34369;51.174;6.738;2023-02-01T10:04:55;5.90;63.70
48589;DHT22;34369;51.174;6.738;2023-02-01T10:07:37;5.90;63.70
48589;DHT22;34369;51.174;6.738;2023-02-01T10:10:23;5.90;63.90
48589;DHT22;34369;51.174;6.738;2023-02-01T10:13:24;5.90;63.80
48589;DHT22;34369;51.174;6.738;2023-02-01T10:16:21;5.90;63.80
48589;DHT22;34369;51.174;6.738;2023-02-01T10:22:02;6.00;63.90
48589;DHT22;34369;51.174;6.738;2023-02-01T10:24:40;6.00;64.00
48589;DHT22;34369;51.174;6.738;2023-02-01T10:27:18;6.00;64.10
48589;DHT22;34369;51.174;6.738;2023-02-01T10:29:55;6.00;64.30
48589;DHT22;34369;51.174;6.738;2023-02-01T10:32:33;6.10;64.40
48589;DHT22;34369;51.174;6.738;2023-02-01T10:35:17;6.10;64.40
48589;DHT22;34369;51.174;6.738;2023-02-01T10:37:52;6.10;64.30
48589;DHT22;34369;51.174;6.738;2023-02-01T10:40:25;6.30;64.30
48589;DHT22;34369;51.174;6.738;2023-02-01T10:43:01;6.30;64.00
48589;DHT22;34369;51.174;6.738;2023-02-01T10:45:34;6.30;64.00
48589;DHT22;34369;51.174;6.738;2023-02-01T10:48:09;6.40;64.00
48589;DHT22;34369;51.174;6.738;2023-02-01T10:50:48;6.40;63.90
48589;DHT22;34369;51.174;6.738;2023-02-01T10:53:31;6.50;63.80
48589;DHT22;34369;51.174;6.738;2023-02-01T10:56:09;6.50;63.50
48589;DHT22;34369;51.174;6.738;2023-02-01T10:59:01;6.50;63.50
48589;DHT22;34369;51.174;6.738;2023-02-01T11:01:40;6.50;63.30
48589;DHT22;34369;51.174;6.738;2023-02-01T11:04:17;6.50;63.30
48589;DHT22;34369;51.174;6.738;2023-02-01T11:07:05;6.50;63.20
48589;DHT22;34369;51.174;6.738;2023-02-01T11:09:49;6.60;63.00
48589;DHT22;34369;51.174;6.738;2023-02-01T11:12:29;6.50;63.00
48589;DHT22;34369;51.174;6.738;2023-02-01T11:15:14;6.60;63.10
48589;DHT22;34369;51.174;6.738;2023-02-01T11:18:16;6.60;63.00
48589;DHT22;34369;51.174;6.738;2023-02-01T11:20:50;6.60;63.00
48589;DHT22;34369;51.174;6.738;2023-02-01T11:23:24;6.60;63.20
48589;DHT22;34369;51.174;6.738;2023-02-01T11:26:00;6.70;63.30
48589;DHT22;34369;51.174;6.738;2023-02-01T11:28:34;6.70;63.10
48589;DHT22;34369;51.174;6.738;2023-02-01T11:31:13;6.70;63.20
48589;DHT22;34369;51.174;6.738;2023-02-01T11:33:49;6.70;63.00
48589;DHT22;34369;51.174;6.738;2023-02-01T11:36:27;6.70;62.70
48589;DHT22;34369;51.174;6.738;2023-02-01T11:39:17;6.70;62.70
48589;DHT22;34369;51.174;6.738;2023-02-01T11:41:59;6.70;62.30
48589;DHT22;34369;51.174;6.738;2023-02-01T11:44:35;6.70;62.50
48589;DHT22;34369;51.174;6.738;2023-02-01T11:47:22;6.70;62.30
48589;DHT22;34369;51.174;6.738;2023-02-01T11:49:59;6.70;62.00
48589;DHT22;34369;51.174;6.738;2023-02-01T11:55:44;6.80;61.30
48589;DHT22;34369;51.174;6.738;2023-02-01T11:58:42;6.80;61.60
48589;DHT22;34369;51.174;6.738;2023-02-01T12:01:37;6.90;61.00
48589;DHT22;34369;51.174;6.738;2023-02-01T12:04:42;6.90;60.50
48589;DHT22;34369;51.174;6.738;2023-02-01T12:07:50;6.90;60.10
48589;DHT22;34369;51.174;6.738;2023-02-01T12:10:41;6.90;60.40
48589;DHT22;34369;51.174;6.738;2023-02-01T12:13:27;6.90;60.50
48589;DHT22;34369;51.174;6.738;2023-02-01T12:16:19;6.90;60.40
48589;DHT22;34369;51.174;6.738;2023-02-01T12:19:23;6.90;60.10
48589;DHT22;34369;51.174;6.738;2023-02-01T12:22:17;6.90;60.00
48589;DHT22;34369;51.174;6.738;2023-02-01T12:25:16;7.00;60.20
48589;DHT22;34369;51.174;6.738;2023-02-01T12:28:19;7.00;59.70
48589;DHT22;34369;51.174;6.738;2023-02-01T12:31:31;7.00;60.10
48589;DHT22;34369;51.174;6.738;2023-02-01T12:34:26;7.00;59.90
48589;DHT22;34369;51.174;6.738;2023-02-01T12:37:16;7.10;59.80
48589;DHT22;34369;51.174;6.738;2023-02-01T12:40:07;7.10;60.00
48589;DHT22;34369;51.174;6.738;2023-02-01T12:42:56;7.10;60.00
48589;DHT22;34369;51.174;6.738;2023-02-01T12:45:33;7.10;60.10
48589;DHT22;34369;51.174;6.738;2023-02-01T12:48:25;7.00;60.20
48589;DHT22;34369;51.174;6.738;2023-02-01T12:51:06;7.00;60.20
48589;DHT22;34369;51.174;6.738;2023-02-01T12:53:47;7.00;60.20
48589;DHT22;34369;51.174;6.738;2023-02-01T12:56:31;7.00;60.10
48589;DHT22;34369;51.174;6.738;2023-02-01T12:59:15;7.00;60.40
48589;DHT22;34369;51.174;6.738;2023-02-01T13:01:55;7.00;60.40
48589;DHT22;34369;51.174;6.738;2023-02-01T13:04:34;7.00;60.50
48589;DHT22;34369;51.174;6.738;2023-02-01T13:07:16;7.00;60.60
48589;DHT22;34369;51.174;6.738;2023-02-01T13:09:57;7.10;60.60
48589;DHT22;34369;51.174;6.738;2023-02-01T13:12:37;7.10;60.70
48589;DHT22;34369;51.174;6.738;2023-02-01T13:15:23;7.10;60.50
48589;DHT22;34369;51.174;6.738;2023-02-01T13:18:01;7.10;60.60
48589;DHT22;34369;51.174;6.738;2023-02-01T13:20:38;7.10;60.70
48589;DHT22;34369;51.174;6.738;2023-02-01T13:23:22;7.10;60.60
48589;DHT22;34369;51.174;6.738;2023-02-01T13:26:04;7.10;60.40
48589;DHT22;34369;51.174;6.738;2023-02-01T13:28:42;7.20;60.50
48589;DHT22;34369;51.174;6.738;2023-02-01T13:31:28;7.10;60.20
48589;DHT22;34369;51.174;6.738;2023-02-01T13:37:58;7.20;59.90
48589;DHT22;34369;51.174;6.738;2023-02-01T13:40:41;7.20;60.00
48589;DHT22;34369;51.174;6.738;2023-02-01T13:43:21;7.20;60.40
48589;DHT22;34369;51.174;6.738;2023-02-01T13:46:02;7.20;60.30
48589;DHT22;34369;51.174;6.738;2023-02-01T13:48:41;7.20;60.20
48589;DHT22;34369;51.174;6.738;2023-02-01T13:51:33;7.20;60.00
48589;DHT22;34369;51.174;6.738;2023-02-01T13:54:26;7.20;60.00
48589;DHT22;34369;51.174;6.738;2023-02-01T13:57:03;7.20;59.60
48589;DHT22;34369;51.174;6.738;2023-02-01T14:00:05;7.30;59.90
48589;DHT22;34369;51.174;6.738;2023-02-01T14:02:48;7.20;59.80
48589;DHT22;34369;51.174;6.738;2023-02-01T14:05:56;7.30;59.70
48589;DHT22;34369;51.174;6.738;2023-02-01T14:08:40;7.30;59.60
48589;DHT22;34369;51.174;6.738;2023-02-01T14:11:48;7.30;59.70
48589;DHT22;34369;51.174;6.738;2023-02-01T14:14:52;7.30;59.40
48589;DHT22;34369;51.174;6.738;2023-02-01T14:17:55;7.30;59.30
48589;DHT22;34369;51.174;6.738;2023-02-01T14:20:41;7.40;59.70
48589;DHT22;34369;51.174;6.738;2023-02-01T14:23:30;7.40;59.10
48589;DHT22;34369;51.174;6.738;2023-02-01T14:26:20;7.50;59.40
48589;DHT22;34369;51.174;6.738;2023-02-01T14:29:02;7.40;59.30
48589;DHT22;34369;51.174;6.738;2023-02-01T14:31:52;7.40;59.30
48589;DHT22;34369;51.174;6.738;2023-02-01T14:34:34;7.50;59.10
48589;DHT22;34369;51.174;6.738;2023-02-01T14:37:25;7.50;59.40
48589;DHT22;34369;51.174;6.738;2023-02-01T14:40:00;7.50;59.00
48589;DHT22;34369;51.174;6.738;2023-02-01T14:42:39;7.50;59.20
48589;DHT22;34369;51.174;6.738;2023-02-01T14:45:48;7.50;59.10
48589;DHT22;34369;51.174;6.738;2023-02-01T14:48:44;7.50;58.80
48589;DHT22;34369;51.174;6.738;2023-02-01T14:51:19;7.50;58.90
48589;DHT22;34369;51.174;6.738;2023-02-01T14:53:53;7.50;59.00
48589;DHT22;34369;51.174;6.738;2023-02-01T14:56:26;7.50;59.00
48589;DHT22;34369;51.174;6.738;2023-02-01T14:59:05;7.50;59.00
48589;DHT22;34369;51.174;6.738;2023-02-01T15:01:48;7.60;59.00
48589;DHT22;34369;51.174;6.738;2023-02-01T15:04:25;7.60;58.80
48589;DHT22;34369;51.174;6.738;2023-02-01T15:07:10;7.60;58.80
48589;DHT22;34369;51.174;6.738;2023-02-01T15:09:46;7.60;58.60
48589;DHT22;34369;51.174;6.738;2023-02-01T15:12:24;7.60;58.80
48589;DHT22;34369;51.174;6.738;2023-02-01T15:15:11;7.60;58.60
48589;DHT22;34369;51.174;6.738;2023-02-01T15:17:52;7.60;58.60
48589;DHT22;34369;51.174;6.738;2023-02-01T15:20:28;7.60;58.80
48589;DHT22;34369;51.174;6.738;2023-02-01T15:23:03;7.70;58.70
48589;DHT22;34369;51.174;6.738;2023-02-01T15:25:39;7.70;58.80
48589;DHT22;34369;51.174;6.738;2023-02-01T15:28:13;7.70;58.80
48589;DHT22;34369;51.174;6.738;2023-02-01T15:30:57;7.70;58.80
48589;DHT22;34369;51.174;6.738;2023-02-01T15:33:31;7.70;58.70
48589;DHT22;34369;51.174;6.738;2023-02-01T15:36:09;7.70;58.70
48589;DHT22;34369;51.174;6.738;2023-02-01T15:38:44;7.70;58.50
48589;DHT22;34369;51.174;6.738;2023-02-01T15:41:18;7.70;58.70
48589;DHT22;34369;51.174;6.738;2023-02-01T15:44:04;7.70;58.80
48589;DHT22;34369;51.174;6.738;2023-02-01T15:46:47;7.70;58.60
48589;DHT22;34369;51.174;6.738;2023-02-01T15:49:27;7.70;58.70
48589;DHT22;34369;51.174;6.738;2023-02-01T15:52:11;7.70;58.80
48589;DHT22;34369;51.174;6.738;2023-02-01T15:54:55;7.70;58.90
48589;DHT22;34369;51.174;6.738;2023-02-01T15:57:31;7.70;58.90
48589;DHT22;34369;51.174;6.738;2023-02-01T16:00:07;7.60;58.90
48589;DHT22;34369;51.174;6.738;2023-02-01T16:02:55;7.60;59.00
48589;DHT22;34369;51.174;6.738;2023-02-01T16:05:35;7.60;58.90
48589;DHT22;34369;51.174;6.738;2023-02-01T16:08:13;7.60;58.90
48589;DHT22;34369;51.174;6.738;2023-02-01T16:10:49;7.60;58.90
48589;DHT22;34369;51.174;6.738;2023-02-01T16:13:25;7.60;59.00
48589;DHT22;34369;51.174;6.738;2023-02-01T16:15:57;7.60;59.00
48589;DHT22;34369;51.174;6.738;2023-02-01T16:18:30;7.60;59.00
48589;DHT22;34369;51.174;6.738;2023-02-01T16:21:02;7.60;59.10
48589;DHT22;34369;51.174;6.738;2023-02-01T16:23:37;7.60;59.20
48589;DHT22;34369;51.174;6.738;2023-02-01T16:26:10;7.60;59.20
48589;DHT22;34369;51.174;6.738;2023-02-01T16:28:43;7.60;59.30
48589;DHT22;34369;51.174;6.738;2023-02-01T16:31:23;7.60;59.30
48589;DHT22;34369;51.174;6.738;2023-02-01T16:33:58;7.60;59.60
48589;DHT22;34369;51.174;6.738;2023-02-01T16:36:40;7.60;59.60
48589;DHT22;34369;51.174;6.738;2023-02-01T16:39:15;7.60;59.70
48589;DHT22;34369;51.174;6.738;2023-02-01T16:41:48;7.50;59.70
48589;DHT22;34369;51.174;6.738;2023-02-01T16:44:21;7.50;59.80
48589;DHT22;34369;51.174;6.738;2023-02-01T16:46:53;7.50;59.90
48589;DHT22;34369;51.174;6.738;2023-02-01T16:49:25;7.50;60.00
48589;DHT22;34369;51.174;6.738;2023-02-01T16:51:58;7.50;59.90
48589;DHT22;34369;51.174;6.738;2023-02-01T16:54:32;7.50;59.90
48589;DHT22;34369;51.174;6.738;2023-02-01T16:57:04;7.50;60.00
48589;DHT22;34369;51.174;6.738;2023-02-01T16:59:39;7.50;60.10
48589;DHT22;34369;51.174;6.738;2023-02-01T17:02:12;7.50;60.20
48589;DHT22;34369;51.174;6.738;2023-02-01T17:04:45;7.50;60.20
48589;DHT22;34369;51.174;6.738;2023-02-01T17:07:19;7.40;60.30
48589;DHT22;34369;51.174;6.738;2023-02-01T17:09:52;7.40;60.30
48589;DHT22;34369;51.174;6.738;2023-02-01T17:12:26;7.40;60.30